Terminal Aerodrome Forecast
Issued by NWS

Home | Current Version | Previous Version | Text Only | Print | Product List | Glossary On
Versions: 1 2 3 4 5 6 7 8 9 10 11 12 13
578
FTUS45 KVEF 251128
TAFBIH
TAF
KBIH 251128Z 2512/2612 31006KT P6SM SCT250
     FM252200 02011G18KT P6SM SCT250
     FM260400 35015G22KT P6SM FEW250=

USA.gov is the U.S. government's official web portal to all federal, state and local government web resources and services.